createdAt,value
2022-09-16T00:00:03.361Z,0.00
2022-09-16T00:01:03.410Z,0.00
2022-09-16T00:02:03.368Z,0.00
2022-09-16T00:03:03.308Z,0.00
2022-09-16T00:04:03.300Z,0.00
2022-09-16T00:05:03.310Z,0.00
2022-09-16T00:06:03.280Z,0.00
2022-09-16T00:07:03.269Z,0.00
2022-09-16T00:08:03.261Z,0.00
2022-09-16T00:09:03.246Z,0.00
2022-09-16T00:10:03.222Z,0.00
2022-09-16T00:11:03.210Z,0.00
2022-09-16T00:12:03.179Z,0.00
2022-09-16T00:13:03.189Z,0.00
2022-09-16T00:14:03.177Z,0.00
2022-09-16T00:15:03.157Z,0.00
2022-09-16T00:16:03.165Z,0.00
2022-09-16T00:17:03.126Z,0.00
2022-09-16T00:18:03.108Z,0.00
2022-09-16T00:19:03.110Z,0.00
2022-09-16T00:20:03.110Z,0.00
2022-09-16T00:21:03.102Z,0.00
2022-09-16T00:22:03.070Z,0.00
2022-09-16T00:23:03.780Z,0.00
2022-09-16T00:24:03.062Z,0.00
2022-09-16T00:25:03.045Z,0.00
2022-09-16T00:26:03.030Z,0.00
2022-09-16T00:27:03.058Z,0.00
2022-09-16T00:28:02.980Z,0.00
2022-09-16T00:29:02.969Z,0.00
2022-09-16T00:30:02.970Z,0.00
2022-09-16T00:31:03.001Z,0.00
2022-09-16T00:32:02.932Z,0.00
2022-09-16T00:33:02.961Z,0.00
2022-09-16T00:34:02.909Z,0.00
2022-09-16T00:35:02.900Z,0.00
2022-09-16T00:36:02.902Z,0.00
2022-09-16T00:37:02.871Z,0.00
2022-09-16T00:38:02.881Z,0.00
2022-09-16T00:39:02.853Z,0.00
2022-09-16T00:40:02.888Z,0.00
2022-09-16T00:41:02.832Z,0.00
2022-09-16T00:42:09.844Z,0.00
2022-09-16T00:43:02.795Z,0.00
2022-09-16T00:44:02.775Z,0.00
2022-09-16T00:45:02.765Z,0.00
2022-09-16T00:46:02.745Z,0.00
2022-09-16T00:49:24.851Z,0.00
2022-09-16T00:50:24.814Z,0.00
2022-09-16T00:51:24.855Z,0.00
2022-09-16T00:52:24.794Z,0.00
2022-09-16T00:53:24.822Z,0.00
2022-09-16T00:54:24.813Z,0.00
2022-09-16T00:55:24.758Z,0.00
2022-09-16T00:56:24.732Z,0.00
2022-09-16T00:57:24.731Z,0.00
2022-09-16T00:58:24.720Z,0.00
2022-09-16T00:59:24.786Z,0.00
2022-09-16T01:00:24.723Z,0.00
2022-09-16T01:01:24.671Z,0.00
2022-09-16T01:02:24.742Z,0.00
2022-09-16T01:03:24.645Z,0.00
2022-09-16T01:04:24.701Z,0.00
2022-09-16T01:05:24.624Z,0.00
2022-09-16T01:06:24.613Z,0.00
2022-09-16T01:07:24.603Z,0.00
2022-09-16T01:08:24.584Z,0.00
2022-09-16T01:09:24.573Z,0.00
2022-09-16T01:10:24.576Z,0.00
2022-09-16T01:11:24.551Z,0.00
2022-09-16T01:12:24.543Z,0.00
2022-09-16T01:13:24.512Z,0.00
2022-09-16T01:14:24.495Z,0.00
2022-09-16T01:15:24.491Z,0.00
2022-09-16T01:16:24.527Z,0.00
2022-09-16T01:17:24.519Z,0.00
2022-09-16T01:18:24.443Z,0.00
2022-09-16T01:19:24.433Z,0.00
2022-09-16T01:20:24.422Z,0.00
2022-09-16T01:21:24.414Z,0.00
2022-09-16T01:22:24.396Z,0.00
2022-09-16T01:23:24.384Z,0.00
2022-09-16T01:24:24.380Z,0.00
2022-09-16T01:25:24.386Z,0.00
2022-09-16T01:26:24.359Z,0.00
2022-09-16T01:27:24.339Z,0.00
2022-09-16T01:28:24.337Z,0.00
2022-09-16T01:29:24.301Z,0.00
2022-09-16T01:30:24.293Z,0.00
2022-09-16T01:31:24.332Z,0.00
2022-09-16T01:32:24.273Z,0.00
2022-09-16T01:33:24.254Z,0.00
2022-09-16T01:34:24.237Z,0.00
2022-09-16T01:35:24.225Z,0.00
2022-09-16T01:36:24.224Z,0.00
2022-09-16T01:37:24.215Z,0.00
2022-09-16T01:38:24.174Z,0.00
2022-09-16T01:39:24.173Z,0.00
2022-09-16T01:40:24.254Z,0.00
2022-09-16T01:41:24.133Z,0.00
2022-09-16T01:42:24.142Z,0.00
2022-09-16T01:43:24.104Z,0.00
2022-09-16T01:44:24.103Z,0.00
2022-09-16T01:45:24.106Z,0.00
2022-09-16T01:46:24.116Z,0.00
2022-09-16T01:47:24.143Z,0.00
2022-09-16T01:48:24.048Z,0.00
2022-09-16T01:49:24.048Z,0.00
2022-09-16T01:50:24.024Z,0.00
2022-09-16T01:51:24.005Z,0.00
2022-09-16T01:52:23.995Z,0.00
2022-09-16T01:53:23.984Z,0.00
2022-09-16T01:54:23.982Z,0.00
2022-09-16T01:55:23.963Z,0.00
2022-09-16T01:56:23.942Z,0.00
2022-09-16T01:57:23.932Z,0.00
2022-09-16T01:58:23.913Z,0.00
2022-09-16T01:59:23.901Z,0.00
2022-09-16T02:00:23.901Z,0.00
2022-09-16T02:01:23.916Z,0.00
2022-09-16T02:02:24.008Z,0.00
2022-09-16T02:03:23.847Z,0.00
2022-09-16T02:04:23.850Z,0.00
2022-09-16T02:05:23.876Z,0.00
2022-09-16T02:06:23.816Z,0.00
2022-09-16T02:07:23.805Z,0.00
2022-09-16T02:08:23.786Z,0.00
2022-09-16T02:09:23.755Z,0.00
2022-09-16T02:10:23.774Z,0.00
2022-09-16T02:11:23.745Z,0.00
2022-09-16T02:12:23.733Z,0.00
2022-09-16T02:13:23.715Z,0.00
2022-09-16T02:14:23.707Z,0.00
2022-09-16T02:15:23.726Z,0.00
2022-09-16T02:16:23.758Z,0.00
2022-09-16T02:17:23.666Z,0.00
2022-09-16T02:18:23.659Z,0.00
2022-09-16T02:19:23.646Z,0.00
2022-09-16T02:20:23.636Z,0.00
2022-09-16T02:21:23.647Z,0.00
2022-09-16T02:22:23.619Z,0.00
2022-09-16T02:23:23.607Z,0.00
2022-09-16T02:24:23.588Z,0.00
2022-09-16T02:25:23.554Z,0.00
2022-09-16T02:26:23.554Z,0.00
2022-09-16T02:27:23.526Z,0.00
2022-09-16T02:28:23.515Z,0.00
2022-09-16T02:29:23.496Z,0.00
2022-09-16T02:30:23.527Z,0.00
2022-09-16T02:31:23.504Z,0.00
2022-09-16T02:32:23.491Z,0.00
2022-09-16T02:33:23.458Z,0.00
2022-09-16T02:34:23.457Z,0.00
2022-09-16T02:35:23.436Z,0.00
2022-09-16T02:36:23.438Z,0.00
2022-09-16T02:37:23.396Z,0.00
2022-09-16T02:38:23.386Z,0.00
2022-09-16T02:39:23.375Z,0.00
2022-09-16T02:40:23.479Z,0.00
2022-09-16T02:41:23.358Z,0.00
2022-09-16T02:42:23.347Z,0.00
2022-09-16T02:43:23.328Z,0.00
2022-09-16T02:44:23.341Z,0.00
2022-09-16T02:45:23.307Z,0.00
2022-09-16T02:46:23.317Z,0.00
2022-09-16T02:47:23.297Z,0.00
2022-09-16T02:48:23.269Z,0.00
2022-09-16T02:49:23.255Z,0.00
2022-09-16T02:50:23.227Z,0.00
2022-09-16T02:51:23.235Z,0.00
2022-09-16T02:52:23.217Z,0.00
2022-09-16T02:53:23.185Z,0.00
2022-09-16T02:54:23.177Z,0.00
2022-09-16T02:55:23.159Z,0.00
2022-09-16T02:56:23.154Z,0.00
2022-09-16T02:57:23.153Z,0.00
2022-09-16T02:58:23.191Z,0.00
2022-09-16T02:59:23.118Z,0.00
2022-09-16T03:00:23.959Z,0.00
2022-09-16T03:01:23.155Z,0.00
2022-09-16T03:02:23.185Z,0.00
2022-09-16T03:03:23.074Z,0.00
2022-09-16T03:04:23.060Z,0.00
2022-09-16T03:05:23.026Z,0.00
2022-09-16T03:06:23.019Z,0.00
2022-09-16T03:07:23.021Z,0.00
2022-09-16T03:08:23.006Z,0.00
2022-09-16T03:09:22.979Z,0.00
2022-09-16T03:10:22.987Z,0.00
2022-09-16T03:11:25.797Z,0.00
2022-09-16T03:12:23.946Z,0.00
2022-09-16T03:13:22.936Z,0.00
2022-09-16T03:14:22.927Z,0.00
2022-09-16T03:15:22.919Z,0.00
2022-09-16T03:16:22.962Z,0.00
2022-09-16T03:17:22.877Z,0.00
2022-09-16T03:18:22.869Z,0.00
2022-09-16T03:19:22.857Z,0.00
2022-09-16T03:20:22.861Z,0.00
2022-09-16T03:21:22.848Z,0.00
2022-09-16T03:22:22.808Z,0.00
2022-09-16T03:23:22.798Z,0.00
2022-09-16T03:24:22.788Z,0.00
2022-09-16T03:25:22.777Z,0.00
2022-09-16T03:26:22.789Z,0.00
2022-09-16T03:27:22.777Z,0.00
2022-09-16T03:28:22.858Z,0.00
2022-09-16T03:29:22.721Z,0.00
2022-09-16T03:30:22.710Z,0.00
2022-09-16T03:31:22.778Z,0.00
2022-09-16T03:32:22.700Z,0.00
2022-09-16T03:33:22.668Z,0.00
2022-09-16T03:34:22.659Z,0.00
2022-09-16T03:35:22.641Z,0.00
2022-09-16T03:36:22.629Z,0.00
2022-09-16T03:37:22.626Z,0.00
2022-09-16T03:38:22.617Z,0.00
2022-09-16T03:39:22.598Z,0.00
2022-09-16T03:40:23.258Z,0.00
2022-09-16T03:41:22.579Z,0.00
2022-09-16T03:42:22.563Z,0.00
2022-09-16T03:43:22.557Z,0.00
2022-09-16T03:44:22.530Z,0.00
2022-09-16T03:45:22.511Z,0.00
2022-09-16T03:46:22.539Z,0.00
2022-09-16T03:47:22.487Z,0.00
2022-09-16T03:48:22.486Z,0.00
2022-09-16T03:49:22.472Z,0.00
2022-09-16T03:50:22.453Z,0.00
2022-09-16T03:51:22.431Z,0.00
2022-09-16T03:52:22.419Z,0.00
2022-09-16T03:53:22.423Z,0.00
2022-09-16T03:54:22.469Z,0.00
2022-09-16T03:55:22.400Z,0.00
2022-09-16T03:56:22.428Z,0.00
2022-09-16T03:57:22.369Z,0.00
2022-09-16T03:58:22.356Z,0.00
2022-09-16T03:59:22.331Z,0.00
2022-09-16T04:00:22.371Z,0.00
2022-09-16T04:01:22.364Z,0.00
2022-09-16T04:02:22.335Z,0.00
2022-09-16T04:03:22.277Z,0.00
2022-09-16T04:04:22.263Z,0.00
2022-09-16T04:05:22.243Z,0.00
2022-09-16T04:06:22.242Z,0.00
2022-09-16T04:07:22.220Z,0.00
2022-09-16T04:08:22.212Z,0.00
2022-09-16T04:09:22.201Z,0.00
2022-09-16T04:10:22.191Z,4.00
2022-09-16T04:11:22.183Z,0.00
2022-09-16T04:12:22.163Z,0.00
2022-09-16T04:13:22.201Z,4.00
2022-09-16T04:14:22.161Z,0.00
2022-09-16T04:15:22.120Z,4.00
2022-09-16T04:16:22.169Z,4.00
2022-09-16T04:17:22.117Z,4.00
2022-09-16T04:18:22.111Z,4.00
2022-09-16T04:19:22.081Z,8.00
2022-09-16T04:20:22.060Z,8.00
2022-09-16T04:21:22.031Z,8.00
2022-09-16T04:22:22.031Z,8.00
2022-09-16T04:23:22.012Z,12.00
2022-09-16T04:24:22.015Z,12.00
2022-09-16T04:25:22.001Z,16.00
2022-09-16T04:26:21.981Z,16.00
2022-09-16T04:27:21.961Z,20.00
2022-09-16T04:28:21.951Z,28.00
2022-09-16T04:29:21.932Z,32.00
2022-09-16T04:30:21.934Z,32.00
2022-09-16T04:31:21.941Z,40.00
2022-09-16T04:32:21.901Z,48.00
2022-09-16T04:33:21.888Z,60.00
2022-09-16T04:34:21.889Z,64.00
2022-09-16T04:35:21.861Z,68.00
2022-09-16T04:36:21.847Z,76.00
2022-09-16T04:37:21.845Z,92.00
2022-09-16T04:38:21.821Z,104.00
2022-09-16T04:39:21.821Z,116.00
2022-09-16T04:40:21.827Z,132.00
2022-09-16T04:41:21.782Z,144.00
2022-09-16T04:42:21.764Z,148.00
2022-09-16T04:43:21.760Z,148.00
2022-09-16T04:44:21.743Z,164.00
2022-09-16T04:45:21.733Z,164.00
2022-09-16T04:46:21.773Z,156.00
2022-09-16T04:47:21.730Z,184.00
2022-09-16T04:48:21.693Z,212.00
2022-09-16T04:49:21.681Z,224.00
2022-09-16T04:50:21.651Z,260.00
2022-09-16T04:51:21.642Z,284.00
2022-09-16T04:52:21.622Z,284.00
2022-09-16T04:53:21.611Z,308.00
2022-09-16T04:54:21.614Z,376.00
2022-09-16T04:55:21.592Z,460.00
2022-09-16T04:56:21.573Z,492.00
2022-09-16T04:57:21.576Z,528.00
2022-09-16T04:58:21.568Z,556.00
2022-09-16T04:59:21.552Z,608.00
2022-09-16T05:00:21.569Z,672.00
2022-09-16T05:01:21.561Z,684.00
2022-09-16T05:02:21.504Z,704.00
2022-09-16T05:03:21.596Z,764.00
2022-09-16T05:04:21.484Z,796.00
2022-09-16T05:05:21.461Z,812.00
2022-09-16T05:06:21.578Z,836.00
2022-09-16T05:07:21.452Z,872.00
2022-09-16T05:08:21.420Z,924.00
2022-09-16T05:09:21.416Z,964.00
2022-09-16T05:10:21.394Z,1020.00
2022-09-16T05:11:21.372Z,1064.00
2022-09-16T05:12:21.372Z,1088.00
2022-09-16T05:13:21.365Z,1104.00
2022-09-16T05:14:21.344Z,1112.00
2022-09-16T05:15:21.342Z,1120.00
2022-09-16T05:16:21.361Z,1112.00
2022-09-16T05:17:46.453Z,1156.00
2022-09-16T05:18:22.304Z,1216.00
2022-09-16T05:19:21.285Z,1240.00
2022-09-16T05:20:21.264Z,1260.00
2022-09-16T05:21:21.252Z,1208.00
2022-09-16T05:22:21.252Z,1164.00
2022-09-16T05:23:21.231Z,1176.00
2022-09-16T05:24:21.212Z,1108.00
2022-09-16T05:25:21.203Z,1132.00
2022-09-16T05:26:21.193Z,1324.00
2022-09-16T05:27:21.173Z,1372.00
2022-09-16T05:28:21.204Z,1396.00
2022-09-16T05:29:21.147Z,1392.00
2022-09-16T05:30:25.779Z,1364.00
2022-09-16T05:31:22.258Z,1392.00
2022-09-16T05:32:21.118Z,1332.00
2022-09-16T05:33:21.113Z,1296.00
2022-09-16T05:34:21.101Z,1260.00
2022-09-16T05:35:21.085Z,1200.00
2022-09-16T05:36:21.056Z,1176.00
2022-09-16T05:37:21.085Z,1192.00
2022-09-16T05:38:21.158Z,1360.00
2022-09-16T05:39:23.661Z,1612.00
2022-09-16T05:40:21.106Z,1580.00
2022-09-16T05:41:20.994Z,1684.00
2022-09-16T05:42:20.974Z,1748.00
2022-09-16T05:43:20.962Z,1660.00
2022-09-16T05:44:20.963Z,1692.00
2022-09-16T05:45:25.652Z,1872.00
2022-09-16T05:46:21.967Z,1608.00
2022-09-16T05:47:20.917Z,1632.00
2022-09-16T05:48:20.895Z,1728.00
2022-09-16T05:49:21.352Z,1732.00
2022-09-16T05:50:20.876Z,1788.00
2022-09-16T05:51:20.875Z,1804.00
2022-09-16T05:52:20.845Z,1844.00
2022-09-16T05:53:20.867Z,2052.00
2022-09-16T05:54:20.835Z,2200.00
2022-09-16T05:55:20.827Z,2372.00
2022-09-16T05:56:20.817Z,2156.00
2022-09-16T05:57:20.786Z,2124.00
2022-09-16T05:58:20.777Z,2084.00
2022-09-16T05:59:20.762Z,2192.00
2022-09-16T06:00:20.776Z,2372.00
2022-09-16T06:01:20.759Z,2324.00
2022-09-16T06:02:20.738Z,2456.00
2022-09-16T06:03:20.725Z,2432.00
2022-09-16T06:04:20.688Z,2492.00
2022-09-16T06:05:20.685Z,2896.00
2022-09-16T06:06:20.646Z,2400.00
2022-09-16T06:07:20.656Z,2236.00
2022-09-16T06:08:20.645Z,2260.00
2022-09-16T06:09:20.673Z,2456.00
2022-09-16T06:10:20.615Z,2588.00
2022-09-16T06:11:20.615Z,2640.00
2022-09-16T06:12:20.597Z,2636.00
2022-09-16T06:13:20.606Z,2556.00
2022-09-16T06:14:20.556Z,2436.00
2022-09-16T06:15:20.549Z,2624.00
2022-09-16T06:16:20.592Z,2656.00
2022-09-16T06:17:20.556Z,2832.00
2022-09-16T06:18:20.566Z,2648.00
2022-09-16T06:19:20.510Z,2632.00
2022-09-16T06:20:20.511Z,3152.00
2022-09-16T06:21:20.487Z,3196.00
2022-09-16T06:22:20.457Z,3208.00
2022-09-16T06:23:20.456Z,3076.00
2022-09-16T06:24:20.426Z,3548.00
2022-09-16T06:25:20.408Z,3136.00
2022-09-16T06:26:20.398Z,3360.00
2022-09-16T06:27:20.389Z,3524.00
2022-09-16T06:28:20.378Z,3684.00
2022-09-16T06:29:20.372Z,3004.00
2022-09-16T06:30:20.389Z,2752.00
2022-09-16T06:31:20.382Z,2792.00
2022-09-16T06:32:20.310Z,3272.00
2022-09-16T06:33:20.321Z,3372.00
2022-09-16T06:34:20.335Z,3176.00
2022-09-16T06:35:20.277Z,3256.00
2022-09-16T06:36:20.257Z,3332.00
2022-09-16T06:37:20.250Z,3924.00
2022-09-16T06:38:20.252Z,3412.00
2022-09-16T06:39:20.226Z,2924.00
2022-09-16T06:40:20.290Z,3628.00
2022-09-16T06:41:20.247Z,3420.00
2022-09-16T06:42:27.215Z,3568.00
2022-09-16T06:43:20.181Z,3568.00
2022-09-16T06:44:20.223Z,3364.00
2022-09-16T06:45:20.154Z,3332.00
2022-09-16T06:46:20.158Z,3312.00
2022-09-16T06:47:20.131Z,3000.00
2022-09-16T06:48:20.112Z,2948.00
2022-09-16T06:49:20.141Z,2708.00
2022-09-16T06:50:20.083Z,2724.00
2022-09-16T06:51:20.065Z,2988.00
2022-09-16T06:52:20.058Z,3392.00
2022-09-16T06:53:20.045Z,3740.00
2022-09-16T06:54:20.114Z,3600.00
2022-09-16T06:55:20.033Z,3580.00
2022-09-16T06:56:20.003Z,3428.00
2022-09-16T06:57:19.992Z,3256.00
2022-09-16T06:58:19.982Z,3472.00
2022-09-16T06:59:20.004Z,3672.00
2022-09-16T07:00:19.954Z,3660.00
2022-09-16T07:01:20.004Z,3824.00
2022-09-16T07:02:19.977Z,4024.00
2022-09-16T07:03:19.936Z,4024.00
2022-09-16T07:04:19.908Z,3728.00
2022-09-16T07:05:19.907Z,3324.00
2022-09-16T07:06:19.875Z,3076.00
2022-09-16T07:07:21.326Z,3080.00
2022-09-16T07:08:19.875Z,3396.00
2022-09-16T07:09:19.845Z,3696.00
2022-09-16T07:10:19.873Z,4016.00
2022-09-16T07:11:19.813Z,3972.00
2022-09-16T07:12:19.927Z,4080.00
2022-09-16T07:13:19.784Z,4512.00
2022-09-16T07:14:19.770Z,4300.00
2022-09-16T07:15:19.764Z,4292.00
2022-09-16T07:16:19.881Z,4272.00
2022-09-16T07:17:19.737Z,4348.00
2022-09-16T07:18:19.714Z,4248.00
2022-09-16T07:19:19.797Z,4044.00
2022-09-16T07:20:19.700Z,3812.00
2022-09-16T07:21:19.676Z,3748.00
2022-09-16T07:22:19.665Z,4256.00
2022-09-16T07:23:19.658Z,4820.00
2022-09-16T07:24:19.669Z,5404.00
2022-09-16T07:25:19.677Z,5036.00
2022-09-16T07:26:19.615Z,4508.00
2022-09-16T07:27:19.726Z,4452.00
2022-09-16T07:28:19.595Z,4240.00
2022-09-16T07:29:19.686Z,5536.00
2022-09-16T07:30:19.566Z,5160.00
2022-09-16T07:31:19.567Z,5332.00
2022-09-16T07:32:19.517Z,5872.00
2022-09-16T07:33:19.523Z,5768.00
2022-09-16T07:34:19.506Z,5716.00
2022-09-16T07:35:19.498Z,5956.00
2022-09-16T07:36:19.497Z,5792.00
2022-09-16T07:37:19.581Z,5720.00
2022-09-16T07:38:19.458Z,5124.00
2022-09-16T07:39:19.440Z,5992.00
2022-09-16T07:40:19.486Z,5544.00
2022-09-16T07:41:19.498Z,4396.00
2022-09-16T07:42:19.409Z,4264.00
2022-09-16T07:43:19.377Z,4068.00
2022-09-16T07:44:19.428Z,3732.00
2022-09-16T07:45:19.347Z,4296.00
2022-09-16T07:46:19.424Z,4664.00
2022-09-16T07:47:22.266Z,4640.00
2022-09-16T07:48:19.349Z,4788.00
2022-09-16T07:49:19.300Z,4700.00
2022-09-16T07:50:19.287Z,4068.00
2022-09-16T07:51:19.283Z,4684.00
2022-09-16T07:52:19.273Z,4048.00
2022-09-16T07:53:19.274Z,3916.00
2022-09-16T07:54:19.259Z,4560.00
2022-09-16T07:55:19.768Z,4788.00
2022-09-16T07:56:19.243Z,4964.00
2022-09-16T07:57:19.208Z,4884.00
2022-09-16T07:58:19.208Z,5720.00
2022-09-16T07:59:19.515Z,5400.00
2022-09-16T08:00:19.176Z,5352.00
2022-09-16T08:01:19.261Z,5520.00
2022-09-16T08:02:19.163Z,5340.00
2022-09-16T08:03:19.127Z,5112.00
2022-09-16T08:04:19.121Z,5376.00
2022-09-16T08:05:19.111Z,5668.00
2022-09-16T08:06:19.090Z,5916.00
2022-09-16T08:07:19.071Z,5636.00
2022-09-16T08:08:19.068Z,5436.00
2022-09-16T08:09:41.241Z,5252.00
2022-09-16T08:10:20.048Z,5268.00
2022-09-16T08:11:19.020Z,5436.00
2022-09-16T08:12:19.032Z,5964.00
2022-09-16T08:13:18.993Z,7172.00
2022-09-16T08:14:19.037Z,7008.00
2022-09-16T08:16:19.030Z,6168.00
2022-09-16T08:17:18.944Z,5648.00
2022-09-16T08:18:18.940Z,6500.00
2022-09-16T08:19:18.919Z,5516.00
2022-09-16T08:20:18.928Z,5136.00
2022-09-16T08:21:18.903Z,4820.00
2022-09-16T08:22:18.883Z,5152.00
2022-09-16T08:23:18.861Z,5604.00
2022-09-16T08:24:18.851Z,5792.00
2022-09-16T08:25:18.846Z,5912.00
2022-09-16T08:26:18.839Z,6004.00
2022-09-16T08:27:18.811Z,6116.00
2022-09-16T08:28:18.799Z,6580.00
2022-09-16T08:29:18.958Z,6416.00
2022-09-16T08:30:18.762Z,6444.00
2022-09-16T08:31:18.822Z,5556.00
2022-09-16T08:32:18.754Z,6288.00
2022-09-16T08:33:18.743Z,5912.00
2022-09-16T08:34:18.738Z,5556.00
2022-09-16T08:35:18.715Z,4896.00
2022-09-16T08:36:18.693Z,4416.00
2022-09-16T08:37:18.703Z,5068.00
2022-09-16T08:38:18.674Z,5928.00
2022-09-16T08:39:18.652Z,6364.00
2022-09-16T08:40:18.768Z,6748.00
2022-09-16T08:41:18.632Z,6876.00
2022-09-16T08:42:20.907Z,6460.00
2022-09-16T08:43:18.593Z,6284.00
2022-09-16T08:44:18.572Z,6296.00
2022-09-16T08:45:18.573Z,6168.00
2022-09-16T08:46:18.573Z,6172.00
2022-09-16T08:47:18.544Z,6324.00
2022-09-16T08:48:18.554Z,6320.00
2022-09-16T08:49:18.555Z,6584.00
2022-09-16T08:50:18.543Z,6020.00
2022-09-16T08:51:18.531Z,5952.00
2022-09-16T08:52:18.512Z,5972.00
2022-09-16T08:53:18.525Z,6000.00
2022-09-16T08:54:18.482Z,5980.00
2022-09-16T08:55:18.461Z,5960.00
2022-09-16T08:56:18.452Z,6100.00
2022-09-16T08:57:18.439Z,5948.00
2022-09-16T08:58:18.432Z,5912.00
2022-09-16T08:59:18.462Z,5692.00
2022-09-16T09:00:18.412Z,5892.00
2022-09-16T09:01:18.503Z,6284.00
2022-09-16T09:02:18.902Z,5880.00
2022-09-16T09:03:18.351Z,5628.00
2022-09-16T09:04:18.365Z,6224.00
2022-09-16T09:05:18.332Z,4628.00
2022-09-16T09:06:18.323Z,4540.00
2022-09-16T09:07:18.302Z,4356.00
2022-09-16T09:08:18.319Z,4228.00
2022-09-16T09:09:18.282Z,4056.00
2022-09-16T09:10:18.294Z,4724.00
2022-09-16T09:11:18.255Z,6776.00
2022-09-16T09:12:19.277Z,5816.00
2022-09-16T09:13:20.119Z,5924.00
2022-09-16T09:14:18.244Z,6328.00
2022-09-16T09:15:18.204Z,4996.00
2022-09-16T09:16:18.285Z,5368.00
2022-09-16T09:17:18.185Z,4976.00
2022-09-16T09:18:18.175Z,4412.00
2022-09-16T09:19:18.145Z,4152.00
2022-09-16T09:20:18.143Z,4352.00
2022-09-16T09:21:18.118Z,4688.00
2022-09-16T09:22:18.112Z,5476.00
2022-09-16T09:23:18.095Z,6532.00
2022-09-16T09:24:18.124Z,7060.00
2022-09-16T09:25:18.085Z,7120.00
2022-09-16T09:26:18.054Z,8432.00
2022-09-16T09:27:18.095Z,6716.00
2022-09-16T09:28:18.036Z,6324.00
2022-09-16T09:29:18.015Z,6548.00
2022-09-16T09:30:18.059Z,6488.00
2022-09-16T09:31:18.042Z,6556.00
2022-09-16T09:32:18.019Z,7068.00
2022-09-16T09:33:44.496Z,7328.00
2022-09-16T09:34:18.956Z,7104.00
2022-09-16T09:35:17.934Z,7464.00
2022-09-16T09:36:17.984Z,7276.00
2022-09-16T09:37:17.916Z,7348.00
2022-09-16T09:38:17.997Z,6400.00
2022-09-16T09:39:17.875Z,6092.00
2022-09-16T09:40:17.974Z,6104.00
2022-09-16T09:41:17.864Z,6388.00
2022-09-16T09:42:17.854Z,5264.00
2022-09-16T09:43:17.828Z,4996.00
2022-09-16T09:44:17.925Z,6548.00
2022-09-16T09:45:17.809Z,6712.00
2022-09-16T09:46:17.828Z,7464.00
2022-09-16T09:47:17.780Z,6492.00
2022-09-16T09:48:17.767Z,8036.00
2022-09-16T09:49:17.758Z,8252.00
2022-09-16T09:50:17.818Z,8336.00
2022-09-16T09:51:17.727Z,8112.00
2022-09-16T09:52:17.716Z,7680.00
2022-09-16T09:53:17.695Z,7224.00
2022-09-16T09:54:17.706Z,7364.00
2022-09-16T09:55:17.725Z,7456.00
2022-09-16T09:56:17.658Z,7908.00
2022-09-16T09:57:17.646Z,8432.00
2022-09-16T09:58:17.665Z,8312.00
2022-09-16T09:59:17.639Z,7712.00
2022-09-16T10:00:17.686Z,7676.00
2022-09-16T10:01:17.643Z,7564.00
2022-09-16T10:02:17.716Z,7404.00
2022-09-16T10:03:17.566Z,5580.00
2022-09-16T10:04:17.563Z,5472.00
2022-09-16T10:05:17.558Z,5280.00
2022-09-16T10:06:17.527Z,5380.00
2022-09-16T10:07:17.520Z,5440.00
2022-09-16T10:08:17.549Z,5472.00
2022-09-16T10:09:17.496Z,5988.00
2022-09-16T10:10:17.598Z,6412.00
2022-09-16T10:11:17.481Z,6172.00
2022-09-16T10:12:17.468Z,5992.00
2022-09-16T10:13:17.452Z,5312.00
2022-09-16T10:14:17.438Z,5032.00
2022-09-16T10:15:17.409Z,4944.00
2022-09-16T10:16:17.486Z,5844.00
2022-09-16T10:17:17.378Z,6280.00
2022-09-16T10:18:17.378Z,6228.00
2022-09-16T10:19:17.358Z,5428.00
2022-09-16T10:20:17.349Z,6888.00
2022-09-16T10:21:17.391Z,7072.00
2022-09-16T10:22:17.349Z,7140.00
2022-09-16T10:23:17.337Z,6588.00
2022-09-16T10:24:17.312Z,6440.00
2022-09-16T10:25:17.292Z,6372.00
2022-09-16T10:26:17.280Z,6200.00
2022-09-16T10:27:17.260Z,5464.00
2022-09-16T10:28:17.271Z,5036.00
2022-09-16T10:29:17.256Z,5408.00
2022-09-16T10:30:17.429Z,7132.00
2022-09-16T10:31:17.221Z,6688.00
2022-09-16T10:32:17.190Z,7172.00
2022-09-16T10:33:17.180Z,7808.00
2022-09-16T10:34:17.180Z,8564.00
2022-09-16T10:35:17.150Z,8924.00
2022-09-16T10:36:17.151Z,8696.00
2022-09-16T10:37:17.130Z,8312.00
2022-09-16T10:38:17.120Z,8020.00
2022-09-16T10:39:17.122Z,6948.00
2022-09-16T10:40:17.302Z,7496.00
2022-09-16T10:41:17.083Z,5740.00
2022-09-16T10:42:17.072Z,5672.00
2022-09-16T10:43:17.053Z,4644.00
2022-09-16T10:44:17.642Z,4880.00
2022-09-16T10:45:17.052Z,5192.00
2022-09-16T10:46:17.076Z,6048.00
2022-09-16T10:47:17.011Z,6444.00
2022-09-16T10:48:16.992Z,7632.00
2022-09-16T10:49:16.997Z,5304.00
2022-09-16T10:50:16.982Z,5204.00
2022-09-16T10:51:16.991Z,6908.00
2022-09-16T10:52:16.963Z,7088.00
2022-09-16T10:53:16.923Z,6224.00
2022-09-16T10:54:16.913Z,5704.00
2022-09-16T10:55:16.922Z,5620.00
2022-09-16T10:56:16.908Z,5860.00
2022-09-16T10:57:16.875Z,5984.00
2022-09-16T10:58:16.866Z,5812.00
2022-09-16T10:59:16.845Z,6376.00
2022-09-16T11:00:16.865Z,6900.00
2022-09-16T11:01:18.328Z,7348.00
2022-09-16T11:02:17.390Z,8040.00
2022-09-16T11:03:16.793Z,6892.00
2022-09-16T11:04:17.464Z,6524.00
2022-09-16T11:05:16.764Z,5900.00
2022-09-16T11:06:16.812Z,5792.00
2022-09-16T11:07:16.989Z,6168.00
2022-09-16T11:08:16.785Z,5812.00
2022-09-16T11:09:16.725Z,6068.00
2022-09-16T11:10:16.717Z,6092.00
2022-09-16T11:11:16.697Z,7564.00
2022-09-16T11:12:16.694Z,7340.00
2022-09-16T11:13:16.685Z,5656.00
2022-09-16T11:14:16.656Z,7380.00
2022-09-16T11:15:16.657Z,5908.00
2022-09-16T11:16:16.728Z,6520.00
2022-09-16T11:17:16.640Z,9060.00
2022-09-16T11:18:16.633Z,7488.00
2022-09-16T11:19:16.605Z,7916.00
2022-09-16T11:20:16.587Z,7608.00
2022-09-16T11:21:16.577Z,8712.00
2022-09-16T11:22:16.565Z,9260.00
2022-09-16T11:23:16.547Z,9232.00
2022-09-16T11:24:16.547Z,8428.00
2022-09-16T11:25:16.518Z,8084.00
2022-09-16T11:26:16.507Z,7944.00
2022-09-16T11:27:16.496Z,6948.00
2022-09-16T11:28:16.485Z,5868.00
2022-09-16T11:29:16.482Z,6904.00
2022-09-16T11:30:16.463Z,6628.00
2022-09-16T11:31:16.483Z,7888.00
2022-09-16T11:32:16.437Z,8704.00
2022-09-16T11:33:17.100Z,8544.00
2022-09-16T11:34:16.467Z,10352.00
2022-09-16T11:35:16.455Z,7452.00
2022-09-16T11:36:16.418Z,6424.00
2022-09-16T11:37:16.368Z,5568.00
2022-09-16T11:38:16.361Z,5224.00
2022-09-16T11:39:16.349Z,4836.00
2022-09-16T11:40:16.377Z,4492.00
2022-09-16T11:41:16.317Z,4188.00
2022-09-16T11:42:16.311Z,4256.00
2022-09-16T11:43:16.277Z,4288.00
2022-09-16T11:44:16.298Z,4240.00
2022-09-16T11:45:16.335Z,4436.00
2022-09-16T11:46:16.271Z,4612.00
2022-09-16T11:47:16.260Z,6148.00
2022-09-16T11:48:16.227Z,4668.00
2022-09-16T11:49:16.209Z,5276.00
2022-09-16T11:50:16.227Z,4060.00
2022-09-16T11:51:16.190Z,3920.00
2022-09-16T11:52:16.190Z,4068.00
2022-09-16T11:53:17.520Z,6028.00
2022-09-16T11:54:16.188Z,4116.00
2022-09-16T11:55:16.141Z,4164.00
2022-09-16T11:56:16.131Z,4200.00
2022-09-16T11:57:16.111Z,4324.00
2022-09-16T11:58:16.111Z,4368.00
2022-09-16T11:59:16.069Z,4292.00
2022-09-16T12:00:16.061Z,4316.00
2022-09-16T12:01:16.048Z,4424.00
2022-09-16T12:02:16.081Z,6528.00
2022-09-16T12:03:16.066Z,6432.00
2022-09-16T12:04:16.040Z,6452.00
2022-09-16T12:05:16.002Z,6372.00
2022-09-16T12:06:16.010Z,6156.00
2022-09-16T12:07:16.010Z,6208.00
2022-09-16T12:08:16.044Z,6376.00
2022-09-16T12:09:15.953Z,6592.00
2022-09-16T12:10:15.942Z,6156.00
2022-09-16T12:11:15.932Z,4896.00
2022-09-16T12:12:15.922Z,5024.00
2022-09-16T12:13:15.891Z,5004.00
2022-09-16T12:14:15.900Z,4764.00
2022-09-16T12:15:15.873Z,4540.00
2022-09-16T12:16:15.907Z,4280.00
2022-09-16T12:17:15.856Z,4420.00
2022-09-16T12:18:15.834Z,6584.00
2022-09-16T12:19:15.829Z,6600.00
2022-09-16T12:20:15.823Z,6712.00
2022-09-16T12:21:15.795Z,6776.00
2022-09-16T12:22:15.784Z,7128.00
2022-09-16T12:23:15.763Z,7624.00
2022-09-16T12:24:15.762Z,8052.00
2022-09-16T12:25:15.752Z,6464.00
2022-09-16T12:26:15.747Z,5668.00
2022-09-16T12:27:15.713Z,4896.00
2022-09-16T12:28:15.703Z,6712.00
2022-09-16T12:29:15.694Z,6172.00
2022-09-16T12:30:15.718Z,6124.00
2022-09-16T12:31:15.728Z,6136.00
2022-09-16T12:32:15.659Z,6144.00
2022-09-16T12:33:15.632Z,6164.00
2022-09-16T12:34:15.627Z,6196.00